Nobleboro, Maine
Current Conditions -  °F | °C
As of 5:20 PM on Thursday 23 Oct 2014 (Local Time) from KIWI Reporting Station
Light Rain Light Rain  
Wind Chill: 51°   Ceiling: 1200
Heat Index: 51°   Visibility: 9mi
Dew Point: 49°   Wind: 6mph
Humidity: 92%   Direction: NA
Pressure: 29.75"   Gusts: NA
Location:  44.08°N, 69.49°W
Report Text: KIWI 232120Z AUTO VRB05KT 9SM -RA BKN012 OVC017 11/09 A2975 RMK AO2 P0002 T01060094
Loading
Personal Weather Stations






























Interactive Weather Map
Tropical Storm Tracking
New forecast layout! Learn more

10-Day Weather Forecast

Advertisements
Track Severe Weather on mobile